Home > Products > Valid Products > TAF

000
FTUS43 KMPX 241700
TAFSTC
TAF
KSTC 241736Z 2418/2518 09007KT 6SM -RA BR SCT007 OVC012
      TEMPO 2418/2420 3SM RA BR BKN007
     FM242000 06003KT 4SM -RA BR BKN007 OVC012
     FM242300 31006KT 6SM BR SCT009 OVC015
     FM250100 28004KT 5SM BR SCT020
     FM250600 VRB02KT 4SM BR SCT008
      TEMPO 2508/2512 2SM BR BKN008
     FM251300 27006KT P6SM BKN070=



000
FTUS43 KMPX 241700
TAFAXN
TAF
KAXN 241736Z 2418/2518 12006KT 4SM -RA BR SCT009 OVC015
      TEMPO 2418/2420 1 1/2SM -RA BR BKN009
     FM242000 33006KT P6SM SCT009 BKN015
     FM242300 31006KT P6SM VCSH SCT020 BKN050
     FM250200 28006KT P6SM FEW050
     FM250600 26004KT 5SM BR SCT010
      TEMPO 2508/2512 2SM BR BKN010
     FM251300 29009KT P6SM BKN070=



000
FTUS43 KMPX 241700
TAFRWF
TAF
KRWF 241736Z 2418/2518 14005KT 4SM -RA BR BKN007 OVC014
      TEMPO 2418/2420 6SM BR SCT007 OVC014
     FM242000 32008KT P6SM VCSH SCT018 BKN050
     FM250100 31005KT P6SM SCT050
     FM250600 26004KT 5SM BR FEW008
      TEMPO 2508/2512 2SM BR
     FM251300 27007KT P6SM SCT070=



000
FTUS43 KMPX 241700
TAFMSP
TAF
KMSP 241736Z 2418/2524 08008KT 3SM -RA BR BKN009 OVC012
      TEMPO 2418/2419 1 1/2SM -RA BR OVC007
     FM242000 05004KT 5SM -RA BR SCT009 OVC012
     FM242200 33005KT P6SM BKN015 OVC025
     FM250200 30005KT P6SM SCT020 BKN035
     FM251000 27005KT 6SM BR SCT040
     FM251300 28007KT P6SM SCT060
     FM251800 29013KT P6SM BKN060=



000
FTUS43 KMPX 241700
TAFEAU
TAF
KEAU 241736Z 2418/2518 11012G18KT P6SM BKN014 OVC028
      TEMPO 2418/2422 4SM -SHRA OVC010
     FM242200 10005KT 6SM BR BKN012 OVC025
     FM250300 26004KT P6SM SCT007 BKN012
     FM250700 24003KT 2SM BR BKN007 OVC012
     FM251300 27004KT 5SM BR BKN012=



000
FTUS43 KMPX 241500 AAA
TAFEAU
TAF AMD
KEAU 241524Z 2415/2512 12013G21KT 6SM -RA BR SCT012 OVC080
      TEMPO 2416/2418 3SM RA BR BKN012
     FM241800 15011G16KT 3SM -RA BR SCT008 OVC012
     FM250000 12004KT 4SM BR SCT007 OVC015
     FM250300 27005KT 6SM BR SCT007 BKN015
     FM250700 26003KT 3SM BR SCT007 BKN015=



000
FTUS43 KMPX 241500 AAA
TAFRWF
TAF AMD
KRWF 241523Z 2415/2512 12006KT 1 1/2SM -RA BR BKN006 OVC010
      TEMPO 2415/2417 4SM -RA BR SCT006 OVC010
     FM241700 36009KT 4SM -RA BR SCT008 OVC012
     FM242000 32011KT P6SM SCT015 BKN050
     FM250000 29008KT P6SM FEW080=



000
FTUS43 KMPX 241400 AAA
TAFMSP
TAF AMD
KMSP 241455Z 2415/2518 10012KT 5SM -RA BR BKN009 OVC012
      TEMPO 2415/2417 2SM RA BR SCT009 OVC012
     FM241700 09011KT 5SM -RA BR SCT009 OVC012
     FM242100 33006KT 6SM -RA BR SCT012 OVC020
     FM250200 29007KT P6SM SCT020 BKN100
     FM250500 27005KT P6SM SCT250
     FM251500 28009KT P6SM SKC=



000
FTUS43 KMPX 241300 AAA
TAFAXN
TAF AMD
KAXN 241311Z 2413/2512 11009KT 2SM BR OVC007
      TEMPO 2413/2417 1SM -RA BR OVC005
     FM241900 33006KT P6SM BKN015
     FM242100 31006KT P6SM VCSH SCT020 BKN050
     FM250100 27006KT P6SM FEW050=



000
FTUS43 KMPX 241100
TAFAXN
TAF
KAXN 241120Z 2412/2512 11007KT P6SM BKN020
     FM241300 11009KT 4SM -RA BR SCT007 OVC015
      TEMPO 2414/2418 2SM -RA BR OVC007
     FM241900 33006KT P6SM BKN025
     FM242100 31006KT P6SM VCSH SCT020 BKN050
     FM250100 27006KT P6SM FEW050=



000
FTUS43 KMPX 241100
TAFRWF
TAF
KRWF 241120Z 2412/2512 10009KT 4SM -RA BR SCT007 OVC015
      TEMPO 2412/2415 2SM RA BR BKN007
     FM241600 36009KT 5SM -RA BR SCT008 OVC015
     FM242000 32011KT P6SM SCT015 BKN050
     FM250000 29008KT P6SM FEW080=



000
FTUS43 KMPX 241100
TAFMSP
TAF
KMSP 241120Z 2412/2518 11012G21KT 4SM -RA BR SCT008 OVC012
      TEMPO 2412/2416 2SM RA BR BKN008
     FM241700 10011KT 5SM -RA BR SCT008 OVC012
     FM242100 33006KT 5SM -RA BR SCT010 OVC020
     FM250200 29007KT P6SM SCT020 BKN100
     FM250500 27005KT P6SM SCT250
     FM251500 28009KT P6SM SKC=



000
FTUS43 KMPX 241100
TAFSTC
TAF
KSTC 241120Z 2412/2512 11009KT 5SM -RA BR SCT007 OVC015
      TEMPO 2414/2418 2SM RA BR OVC007
     FM241900 36005KT 4SM -RA BR SCT007 OVC015
     FM242200 32007KT P6SM SCT010 OVC025
     FM250000 29006KT P6SM SCT050
     FM250200 25004KT P6SM SKC=



000
FTUS43 KMPX 241100
TAFEAU
TAF
KEAU 241120Z 2412/2512 12012G20KT 4SM -RA BR SCT007 OVC015
      TEMPO 2412/2415 2SM RA BR OVC007
     FM241600 15011G16KT 3SM -RA BR BKN008 OVC015
     FM250000 12004KT 4SM BR SCT007 OVC015
     FM250300 27005KT 6SM BR SCT007 BKN015
     FM250700 26003KT 3SM BR SCT007 BKN015=



000
FTUS43 KMPX 240800 CCA
TAFMSP
TAF COR
KMSP 240854Z 2409/2512 11012G21KT 5SM -RA BR BKN015 OVC025
     FM241200 11012G21KT 4SM -RA BR SCT008 OVC015
      TEMPO 2412/2416 2SM -RA BR BKN008
     FM241600 15007KT 5SM -RA BR BKN012
     FM242000 26009KT P6SM SCT010 BKN020
     FM250000 30007KT P6SM SCT020 BKN050
     FM250300 27005KT P6SM SCT070=



000
FTUS43 KMPX 240800 AAA
TAFEAU
TAF AMD
KEAU 240852Z 2409/2506 12013G20KT P6SM BKN012 OVC025
     FM241000 13014G20KT 3SM -RA BR SCT007 OVC015
      TEMPO 2411/2415 2SM RA BR OVC007
     FM241600 15011G16KT 4SM -RA OVC010
     FM242100 23007KT 6SM -RA BR SCT010 BKN020
     FM250200 27007KT P6SM SCT015 BKN030=



000
FTUS43 KMPX 240800 AAA
TAFMSP
TAF AMD
KMSP 240850Z 2409/2512 11012G21KT 6SM -RA BR SCT025 OVC040
     FM241200 11012G21KT 4SM -RA BR SCT008 OVC015
      TEMPO 2412/2416 2SM -RA BR BKN008
     FM241600 15007KT 5SM -RA BR BKN012
     FM242000 26009KT P6SM SCT010 BKN020
     FM250000 30007KT P6SM SCT020 BKN050
     FM250300 27005KT P6SM SCT070=



000
FTUS43 KMPX 240500
TAFEAU
TAF
KEAU 240520Z 2406/2506 12010KT P6SM SCT030 OVC050
     FM240900 12013G20KT 5SM -RA BR SCT012 OVC025
     FM241100 13014G20KT 3SM RA BR OVC007
      TEMPO 2411/2415 2SM -RA BR
     FM241600 15011G16KT 4SM -RA OVC010
     FM242100 23007KT 6SM -RA BR SCT010 BKN020
     FM250200 27007KT P6SM SCT015 BKN030=



000
FTUS43 KMPX 240500
TAFMSP
TAF
KMSP 240520Z 2406/2512 11012KT P6SM OVC040
     FM240900 11012G21KT 5SM -RA BR BKN025
      TEMPO 2410/2414 3SM -RA BR BKN008
     FM241400 15007KT 5SM -RA BR BKN012
     FM242000 26009KT P6SM SCT010 BKN020
     FM250000 30007KT P6SM SCT020 BKN050
     FM250300 27005KT P6SM SCT070=



000
FTUS43 KMPX 240500
TAFRWF
TAF
KRWF 240520Z 2406/2506 13015G22KT P6SM SCT015 OVC050
     FM240800 12012KT 6SM -RA BR SCT007 OVC015
     FM241000 10009KT 3SM -RA BR SCT006 OVC012
      TEMPO 2410/2414 2SM -RA BR BKN006
     FM241600 36009KT 5SM -RA BR SCT008 BKN015
     FM241800 32011KT P6SM SCT015 BKN050
     FM250000 29008KT P6SM SCT100=



000
FTUS43 KMPX 240500
TAFSTC
TAF
KSTC 240520Z 2406/2506 11010KT P6SM SCT015 OVC040
     FM240900 12012KT 4SM BR SCT007 BKN012
     FM241200 12008KT 5SM -RA BR SCT007 OVC015
      TEMPO 2414/2418 2SM -RA BR BKN007
     FM241800 36005KT 4SM -RA BR SCT007 OVC015
     FM242100 32007KT 5SM BR OVC020
     FM250000 29006KT P6SM SCT050=



000
FTUS43 KMPX 240500
TAFAXN
TAF
KAXN 240520Z 2406/2506 12015G22KT P6SM SCT020 OVC040
     FM240800 12010KT 6SM -RA BR SCT015 BKN020
     FM241200 15007KT 4SM -RA BR BKN015
      TEMPO 2414/2418 2SM -RA BR BKN008
     FM241800 33006KT 6SM -RA BR SCT010 BKN020
     FM242100 31006KT P6SM SCT020 BKN050
     FM250200 27005KT P6SM SCT080=



000
FTUS43 KMPX 240300 AAA
TAFSTC
TAF AMD
KSTC 240300Z 2403/2424 11010KT P6SM SCT015 OVC040
     FM240600 12012KT 4SM BR SCT007 BKN012
     FM241200 12008KT 5SM -RA BR SCT007 OVC015
      TEMPO 2414/2418 2SM -RA BR BKN007
     FM241800 36005KT 4SM -RA BR SCT007 OVC015
     FM242100 32007KT 5SM BR OVC020=



000
FTUS43 KMPX 240200 AAA
TAFMSP
TAF AMD
KMSP 240259Z 2403/2506 11014G21KT P6SM OVC040
     FM240600 11012G21KT 5SM -RA BR BKN025
      TEMPO 2410/2414 3SM -RA BR BKN008
     FM241400 15007KT 5SM -RA BR BKN012
     FM242000 26009KT P6SM SCT010 BKN020
     FM250000 30007KT P6SM SCT020 BKN050=



000
FTUS43 KMPX 232300 RRA
TAFMSP
TAF
KMSP 232351Z 2400/2506 11014G21KT P6SM FEW025 OVC050
     FM240600 11012G21KT 5SM -RA BR BKN025
      TEMPO 2410/2414 3SM -RA BR BKN008
     FM241400 15007KT 5SM -RA BR BKN012
     FM242000 26009KT P6SM SCT010 BKN020
     FM250000 30007KT P6SM SCT020 BKN050=



000
FTUS43 KMPX 232300 RRA
TAFEAU
TAF
KEAU 232351Z 2400/2424 18010KT 6SM -RA SCT040 OVC070
     FM240400 14009KT P6SM SCT020 OVC040
     FM240600 12013G20KT 5SM -RA BR SCT012 OVC025
     FM241000 13014G20KT 3SM RA BR OVC007
      TEMPO 2411/2415 2SM -RA BR
     FM241600 15011G16KT 4SM -RA OVC010
     FM242100 23007KT 6SM -RA BR SCT010 BKN020=



000
FTUS43 KMPX 232300 RRA
TAFRWF
TAF
KRWF 232351Z 2400/2424 13020G30KT P6SM SCT015 OVC050
     FM240600 12013KT 6SM -RA BR SCT007 OVC015
     FM240900 10009KT 3SM -RA BR SCT006 OVC012
      TEMPO 2410/2414 2SM -RA BR BKN006
     FM241600 36009KT 5SM -RA BR SCT008 BKN015
     FM241800 32011KT P6SM SCT015 BKN050=



000
FTUS43 KMPX 232300 RRA
TAFAXN
TAF
KAXN 232351Z 2400/2424 12015G22KT P6SM SCT010 OVC050
      TEMPO 2400/2403 BKN010
     FM240800 12010KT 6SM -RA BR SCT015 BKN020
     FM241200 15007KT 4SM -RA BR BKN015
      TEMPO 2414/2418 2SM -RA BR BKN008
     FM241800 33006KT 6SM -RA BR SCT010 BKN020
     FM242100 31006KT P6SM SCT020 BKN050=



000
FTUS43 KMPX 232300 RRA
TAFSTC
TAF
KSTC 232351Z 2400/2424 13014G21KT 6SM -RA BR SCT015 OVC040
     FM240300 12012KT 4SM BR SCT007 BKN012
     FM241200 12008KT 5SM -RA BR SCT007 OVC015
      TEMPO 2414/2418 2SM -RA BR BKN007
     FM241800 36005KT 4SM -RA BR SCT007 OVC015
     FM242100 32007KT 5SM BR OVC020=



000
FTUS43 KMPX 232200 CCA
TAFAXN
TAF COR
KAXN 232231Z 2322/2418 13020G27KT 4SM -RA BR SCT009 OVC040
      TEMPO 2322/2324 BKN009
     FM240000 13015G22KT 6SM -RA BR SCT012 OVC020
     FM240700 12010KT 3SM -RA BR BKN007 OVC015=



000
FTUS43 KMPX 232200 AAB
TAFAXN
TAF AMD
KAXN 232229Z 2323/2418 13020G27KT 4SM -RA BR SCT009 OVC040
      TEMPO 2322/2324 BKN009
     FM240000 13015G22KT 6SM -RA BR SCT012 OVC020
     FM240700 12010KT 3SM -RA BR BKN007 OVC015=



000
FTUS43 KMPX 232000 AAB
TAFMSP
TAF AMD
KMSP 232055Z 2321/2424 11014G21KT P6SM VCSH FEW025 OVC050
      TEMPO 2321/2324 6SM -RA
     FM240500 12012G21KT 4SM -RA BR BKN020 OVC040
     FM240900 11012G21KT 3SM -RA BR BKN008 OVC015
     FM241400 09010KT 5SM -RA BR BKN010 OVC020
     FM242200 33010KT P6SM SCT010 BKN020=



000
FTUS43 KMPX 231900 AAA
TAFMSP
TAF AMD
KMSP 231904Z 2319/2424 13014G21KT 6SM -RA FEW025 OVC050
     FM240500 12012G21KT 4SM -RA BR BKN020 OVC040
     FM240900 11012G21KT 3SM -RA BR BKN008 OVC015
     FM241400 09010KT 5SM -RA BR BKN010 OVC020
     FM242200 33010KT P6SM SCT010 BKN020=



000
FTUS43 KMPX 231800 AAA
TAFAXN
TAF AMD
KAXN 231831Z 2319/2418 13020G27KT 4SM -RA BR BKN009
     FM240000 13015G22KT 6SM -RA BR SCT012 OVC020
     FM240700 12010KT 3SM -RA BR BKN007 OVC015=



000
FTUS43 KMPX 231700
TAFEAU
TAF
KEAU 231730Z 2318/2418 13012KT P6SM BKN120
     FM232000 14012G20KT P6SM VCSH SCT070 BKN100
     FM232300 13012G19KT 6SM -RA SCT025 OVC050
     FM240700 11012G20KT 4SM -RA BR SCT012 OVC025
     FM241000 11012G20KT 2SM RA BR OVC007
     FM241600 12011G16KT 5SM -RA OVC010=



000
FTUS43 KMPX 231700
TAFRWF
TAF
KRWF 231730Z 2318/2418 13020G29KT P6SM VCSH SCT030 OVC060
     FM240000 13020G30KT 4SM -RA BR SCT020 OVC040
     FM240500 12010KT 3SM -RA BR SCT007 OVC015
     FM241400 36009KT 5SM -RA BR OVC015=



000
FTUS43 KMPX 231700
TAFAXN
TAF
KAXN 231730Z 2318/2418 13020G27KT P6SM -SHRA SCT030 OVC050
      TEMPO 2318/2319 4SM -RA BKN030
     FM240000 13015G22KT 6SM -RA BR SCT012 OVC020
     FM240700 12010KT 3SM -RA BR BKN007 OVC015=



000
FTUS43 KMPX 231700
TAFSTC
TAF
KSTC 231730Z 2318/2418 13013G19KT 5SM -RA SCT030 OVC060
     FM232000 13017G25KT 4SM -RA BR SCT020 OVC035
     FM240000 13014G21KT 5SM -RA BR BKN022 OVC040
     FM240700 12013KT 3SM -RA BR BKN007 OVC015=



000
FTUS43 KMPX 231700
TAFMSP
TAF
KMSP 231730Z 2318/2424 13014G24KT 6SM -RA FEW025 OVC050
      TEMPO 2319/2321 4SM -RA BR BKN030
     FM232300 13015G18KT P6SM VCSH SCT035 BKN050
     FM240500 12012G21KT 4SM -RA BR BKN020 OVC040
     FM240900 11012G21KT 3SM -RA BR BKN008 OVC015
     FM241400 09010KT 5SM -RA BR BKN010 OVC020
     FM242200 33010KT P6SM SCT010 BKN020=



000
FTUS43 KMPX 231400 AAA
TAFMSP
TAF AMD
KMSP 231441Z 2315/2418 14013G19KT P6SM SCT050 OVC080
     FM231630 13014G24KT 6SM -RA FEW025 OVC050
     FM232200 13015G18KT 6SM -RA BR SCT020 OVC035
     FM240200 12012G21KT 4SM -RA BR BKN020 OVC040
     FM240800 11012G21KT 4SM -RA BR BKN008 OVC015
      TEMPO 2408/2412 2SM RA BR OVC008=



000
FTUS43 KMPX 231400 AAA
TAFEAU
TAF AMD
KEAU 231410Z 2314/2412 16009KT P6SM OVC200
     FM231600 14012KT P6SM SCT100 OVC200
     FM232100 14012G20KT P6SM SCT070 BKN100
     FM240000 13012G19KT 6SM -RA SCT025 OVC050
     FM240700 11012G20KT 4SM -RA BR SCT012 OVC025
     FM241000 11012G20KT 2SM RA BR OVC007=



000
FTUS43 KMPX 231300 AAA
TAFRWF
TAF AMD
KRWF 231350Z 2314/2412 14014G22KT P6SM -SHRA SCT030 OVC060
      TEMPO 2314/2315 4SM RA BKN040
     FM231900 14024G36KT P6SM VCSH SCT040 BKN070
     FM240000 13020G30KT 4SM -RA BR SCT020 OVC040
      TEMPO 2401/2405 2SM -RA BR BKN020
     FM240500 12010KT 3SM -RA BR SCT007 OVC015=



000
FTUS43 KMPX 231100
TAFEAU
TAF
KEAU 231129Z 2312/2412 10006KT P6SM OVC200
     FM231600 14012KT P6SM SCT100 OVC200
     FM232100 14012G20KT P6SM SCT070 BKN100
     FM240000 13012G19KT 6SM -RA SCT025 OVC050
     FM240700 11012G20KT 4SM -RA BR SCT012 OVC025
     FM241000 11012G20KT 2SM RA BR OVC007=



000
FTUS43 KMPX 231100
TAFAXN
TAF
KAXN 231129Z 2312/2412 13012G21KT P6SM VCSH SCT030 OVC060
     FM231300 13015G25KT 6SM -RA SCT030 OVC050
     FM231900 13022G30KT 4SM -RA BR SCT020 OVC040
     FM240000 13015G22KT 4SM -RA BR SCT012 OVC020
      TEMPO 2402/2405 2SM -RA BR BKN007 OVC015
     FM240700 12010KT 2SM -RA BR BKN007 OVC015=



000
FTUS43 KMPX 231100
TAFSTC
TAF
KSTC 231129Z 2312/2412 12009KT P6SM SCT100 OVC200
     FM231500 13013G19KT P6SM -RA SCT030 OVC060
     FM232000 13017G25KT 4SM -RA BR SCT020 OVC035
     FM240000 13014G21KT 4SM -RA BR BKN022 OVC040
     FM240700 12013KT 3SM -RA BR BKN007 OVC015=



000
FTUS43 KMPX 231100
TAFMSP
TAF
KMSP 231129Z 2312/2418 13011KT P6SM SCT060 BKN100
     FM231500 13014G24KT P6SM -RA FEW025 OVC060
     FM232200 13015G18KT 6SM -RA BR SCT020 OVC035
     FM240200 12012G21KT 4SM -RA BR BKN020 OVC040
     FM240800 11012G21KT 4SM -RA BR BKN008 OVC015
      TEMPO 2408/2412 2SM RA BR OVC008=



000
FTUS43 KMPX 231100
TAFRWF
TAF
KRWF 231129Z 2312/2412 13012G20KT P6SM VCSH OVC060
     FM231400 14020G30KT P6SM -SHRA SCT030 OVC060
     FM231900 14024G36KT P6SM VCSH SCT040 BKN070
     FM240000 13020G30KT 4SM -RA BR SCT020 OVC040
      TEMPO 2401/2405 2SM -RA BR BKN020
     FM240500 12010KT 3SM -RA BR SCT007 OVC015=



000
FTUS43 KMPX 230900 AAA
TAFRWF
TAF AMD
KRWF 230927Z 2309/2406 12009KT P6SM -RA OVC070
     FM231100 13013G20KT P6SM VCSH OVC060
     FM231400 14020G30KT 6SM -RA BR SCT030 OVC050
     FM231800 14025G37KT P6SM SCT040 BKN070
     FM240000 13020G30KT 4SM -RA BR SCT020 OVC040
      TEMPO 2401/2405 2SM -RA BR BKN020=



000
FTUS43 KMPX 230800 AAA
TAFMSP
TAF AMD
KMSP 230853Z 2309/2412 12010KT P6SM SCT100 BKN200
     FM231200 12011KT P6SM SCT050 BKN070
     FM231400 14014G21KT 6SM -RA BR SCT025 OVC050
     FM240000 13013G18KT 4SM -RA BR BKN025
      TEMPO 2402/2406 2SM -RA BR
     FM240600 12012KT 5SM -RA BR BKN020=



000
FTUS43 KMPX 230500
TAFSTC
TAF
KSTC 230526Z 2306/2406 09005KT P6SM SCT100 SCT250
     FM231000 12009KT P6SM SCT060 BKN100
     FM231400 13013G19KT 6SM -SHRA SCT030 BKN060
     FM232000 13017G25KT 4SM -RA BR OVC030
     FM240000 13014G21KT 4SM -RA BR OVC025
      TEMPO 2401/2405 2SM -RA BR=



000
FTUS43 KMPX 230500
TAFEAU
TAF
KEAU 230526Z 2306/2406 VRB03KT P6SM SCT250
     FM231200 12007KT P6SM SCT100 BKN150
     FM231500 15011KT P6SM SCT060 BKN090
     FM231800 14013G20KT 6SM -RA BR SCT030 BKN050
     FM240000 13012G19KT 4SM -RA BR BKN030
      TEMPO 2402/2406 2SM -RA BR=



000
FTUS43 KMPX 230500
TAFRWF
TAF
KRWF 230526Z 2306/2406 10009KT P6SM BKN080 OVC120
     FM231000 13013G20KT P6SM OVC060
     FM231400 14020G30KT 6SM -RA BR SCT030 OVC050
     FM231800 14025G37KT P6SM SCT040 BKN070
     FM240000 13020G30KT 4SM -RA BR SCT020 OVC040
      TEMPO 2401/2405 2SM -RA BR BKN020=



000
FTUS43 KMPX 230500
TAFAXN
TAF
KAXN 230526Z 2306/2406 12006KT P6SM SCT100 BKN200
     FM230900 13010KT P6SM BKN060
     FM231200 13016G24KT 5SM -SHRA BR SCT030 OVC050
     FM231800 13022G30KT 4SM -RA BR SCT018 OVC030
     FM240000 13015G22KT 4SM -RA BR SCT012 OVC020
      TEMPO 2401/2405 2SM -RA BR=



000
FTUS43 KMPX 230500
TAFMSP
TAF
KMSP 230526Z 2306/2412 09006KT P6SM SCT100 BKN200
     FM231000 12009KT P6SM SCT050 BKN070
     FM231400 14014G21KT 6SM -RA BR SCT025 OVC050
     FM240000 13013G18KT 4SM -RA BR BKN025
      TEMPO 2402/2406 2SM -RA BR
     FM240600 12012KT 5SM -RA BR BKN020=



000
FTUS43 KMPX 230300 AAA
TAFMSP
TAF AMD
KMSP 230310Z 2303/2406 08006KT P6SM BKN200
     FM230600 11006KT P6SM SCT100 BKN150
     FM231000 12009KT P6SM SCT050 BKN070
     FM231500 14014G21KT 6SM -RA BR SCT025 OVC050
     FM240000 12013G18KT 4SM -RA BR BKN025=



000
FTUS43 KMPX 222300
TAFAXN
TAF
KAXN 222339Z 2300/2324 12008KT P6SM SCT100 BKN200
     FM230900 13012KT P6SM BKN060
     FM231200 13016G24KT 5SM -SHRA BR SCT030 OVC050
     FM231800 13022G30KT 4SM -RA BR OVC030=



000
FTUS43 KMPX 222300
TAFMSP
TAF
KMSP 222339Z 2300/2406 03008KT P6SM SCT250
     FM230200 08006KT P6SM BKN200
     FM230400 11006KT P6SM SCT100 BKN150
     FM231000 12009KT P6SM SCT050 BKN070
     FM231500 14014G21KT 6SM -RA BR SCT025 OVC050
     FM240000 12013G18KT 4SM -RA BR BKN025=



000
FTUS43 KMPX 222300
TAFEAU
TAF
KEAU 222339Z 2300/2324 03006KT P6SM SCT250
     FM230600 08005KT P6SM SCT250
     FM231200 12010KT P6SM SCT100 BKN150
     FM231500 14012KT P6SM SCT060 BKN090
     FM231800 15013G20KT 6SM -RA BR SCT030 BKN050=



000
FTUS43 KMPX 222300
TAFSTC
TAF
KSTC 222339Z 2300/2324 36006KT P6SM SCT250
     FM230200 08006KT P6SM SCT100 SCT250
     FM230900 12010KT P6SM SCT060 BKN100
     FM231400 13013G19KT 6SM -SHRA SCT030 BKN060
     FM232000 13007G25KT 4SM -RA BR OVC030=



000
FTUS43 KMPX 222300
TAFRWF
TAF
KRWF 222339Z 2300/2324 09006KT P6SM SCT200
     FM230300 12009KT P6SM BKN080 OVC120
     FM231000 13013G20KT 6SM -SHRA BR OVC060
     FM231400 14020G30KT 6SM -RA BR SCT030 OVC050
     FM231800 14025G37KT P6SM SCT040 BKN070
     FM232200 13020G30KT 4SM -RA BR SCT020 OVC040=



000
FTUS43 KMPX 222000 AAA
TAFMSP
TAF AMD
KMSP 222056Z 2221/2324 34010G15KT P6SM SCT300
     FM222200 01008KT P6SM SCT250
     FM230100 06006KT P6SM BKN200
     FM230300 11006KT P6SM BKN200
     FM231100 12009KT P6SM BKN070 OVC100
     FM231600 12013G17KT P6SM -SHRA SCT030 OVC060
     FM232200 12013G18KT P6SM VCSH BKN040=



000
FTUS43 KMPX 221700
TAFAXN
TAF
KAXN 221730Z 2218/2318 02005KT P6SM BKN250
     FM230000 12008KT P6SM SCT100 BKN200
     FM230700 13012KT P6SM BKN060 OVC100
     FM231300 13016G24KT 5SM -SHRA OVC050=



000
FTUS43 KMPX 221700
TAFSTC
TAF
KSTC 221730Z 2218/2318 36006KT P6SM SCT250
     FM230200 08006KT P6SM SCT100 SCT250
     FM230900 12010KT P6SM SCT060 BKN100
     FM231500 13013G19KT 6SM -SHRA BKN060=



000
FTUS43 KMPX 221700
TAFEAU
TAF
KEAU 221730Z 2218/2318 34011G18KT P6SM SKC
     FM222300 36007KT P6SM SCT250
     FM230600 06005KT P6SM SCT250
     FM231400 14010KT P6SM SCT120 BKN200=



000
FTUS43 KMPX 221700
TAFMSP
TAF
KMSP 221730Z 2218/2324 34010G15KT P6SM SCT300
     FM222200 01008KT P6SM SCT250
     FM230100 06006KT P6SM BKN200
     FM230300 11006KT P6SM BKN200
     FM231100 12009KT P6SM BKN070 OVC100
     FM231600 12013G17KT P6SM -SHRA SCT030 OVC060
     FM232200 12013G18KT P6SM VCSH BKN040=



000
FTUS43 KMPX 221700
TAFRWF
TAF
KRWF 221730Z 2218/2318 06004KT P6SM SCT250
     FM222200 09006KT P6SM SCT200
     FM230300 12009KT P6SM BKN080 OVC120
     FM231000 13011KT P6SM VCSH OVC060
     FM231500 14017G25KT P6SM BKN060=



000
FTUS43 KMPX 221400 AAA
TAFMSP
TAF AMD
KMSP 221435Z 2215/2318 35010KT P6SM SKC
     FM222200 01007KT P6SM SCT250
     FM230100 06006KT P6SM BKN200
     FM230300 11007KT P6SM BKN200
     FM231200 12009KT P6SM BKN070 OVC100
     FM231500 12012KT P6SM VCSH SCT030 OVC060=



000
FTUS43 KMPX 221100
TAFRWF
TAF
KRWF 221120Z 2212/2312 31006KT P6SM SKC
     FM221500 06006KT P6SM SCT250
     FM222100 12007KT P6SM BKN200
     FM230600 13009KT P6SM BKN080 OVC120=



000
FTUS43 KMPX 221100
TAFSTC
TAF
KSTC 221120Z 2212/2312 36004KT P6SM SKC
     FM230000 08007KT P6SM SCT250
     FM230900 12007KT P6SM SCT100 BKN150=



000
FTUS43 KMPX 221100
TAFAXN
TAF
KAXN 221120Z 2212/2312 33004KT P6SM SCT250
     FM221800 07006KT P6SM BKN250
     FM230000 12008KT P6SM BKN200
     FM230700 13012KT P6SM BKN070 OVC150=



000
FTUS43 KMPX 221100
TAFMSP
TAF
KMSP 221120Z 2212/2318 36007KT P6SM SKC
     FM222300 06007KT P6SM SCT250
     FM230300 11007KT P6SM BKN200
     FM231200 12009KT P6SM BKN070 OVC100
     FM231500 12012KT P6SM VCSH SCT030 OVC060=



000
FTUS43 KMPX 221100
TAFEAU
TAF
KEAU 221120Z 2212/2312 31005KT P6SM SKC
     FM222300 02006KT P6SM SCT250
     FM230600 06005KT P6SM BKN250=



000
FTUS43 KMPX 220800 AAA
TAFMSP
TAF AMD
KMSP 220848Z 2209/2312 31006KT P6SM SKC
     FM221500 34010KT P6SM FEW250
     FM222000 02007KT P6SM SCT250
     FM230000 07005KT P6SM BKN250
     FM230600 13008KT P6SM BKN250=



000
FTUS43 KMPX 220500
TAFSTC
TAF
KSTC 220520Z 2206/2306 32004KT P6SM SKC
     FM221800 04007KT P6SM FEW250
     FM230000 08007KT P6SM SCT250
     FM230300 12006KT P6SM BKN250=



000
FTUS43 KMPX 220500
TAFMSP
TAF
KMSP 220520Z 2206/2312 33010KT P6SM SKC
     FM220800 33006KT P6SM SKC
     FM221500 34010KT P6SM FEW250
     FM222000 02007KT P6SM SCT250
     FM230000 07005KT P6SM BKN250
     FM230600 13008KT P6SM BKN250=



000
FTUS43 KMPX 220500
TAFAXN
TAF
KAXN 220520Z 2206/2306 33004KT P6SM SKC
     FM221800 02006KT P6SM FEW250
     FM222100 07007KT P6SM SCT250
     FM230000 12007KT P6SM BKN200
     FM230400 14011KT P6SM BKN120=



000
FTUS43 KMPX 220500
TAFEAU
TAF
KEAU 220520Z 2206/2306 31012KT P6SM SKC
     FM220900 32006KT P6SM SKC
     FM221400 33013KT P6SM SKC
     FM222000 35009KT P6SM FEW250
     FM230200 06006KT P6SM SCT250=



000
FTUS43 KMPX 220500
TAFRWF
TAF
KRWF 220520Z 2206/2306 33006KT P6SM SKC
     FM221500 01008KT P6SM FEW250
     FM222000 07007KT P6SM SCT250
     FM230000 12009KT P6SM BKN250=



000
FTUS43 KMPX 220300 AAA
TAFMSP
TAF AMD
KMSP 220303Z 2203/2306 33013G23KT P6SM SKC
     FM220500 33010KT P6SM SKC
     FM220800 33006KT P6SM SKC
     FM221800 02006KT P6SM SCT250
     FM230000 07005KT P6SM SCT250=



000
FTUS43 KMPX 212300
TAFEAU
TAF
KEAU 212337Z 2200/2224 31016G23KT P6SM SKC
     FM220300 33009KT P6SM SKC
     FM220600 32006KT P6SM SKC
     FM221800 35009KT P6SM SCT250=



000
FTUS43 KMPX 212300
TAFSTC
TAF
KSTC 212337Z 2200/2224 31018G25KT P6SM SKC
     FM220200 33010KT P6SM SKC
     FM220600 33004KT P6SM SKC
     FM221800 07005KT P6SM SCT250=



000
FTUS43 KMPX 212300
TAFAXN
TAF
KAXN 212337Z 2200/2224 33015G27KT P6SM SKC
     FM220200 33008KT P6SM SKC
     FM220600 VRB03KT P6SM SKC
     FM221800 07005KT P6SM SCT250=



000
FTUS43 KMPX 212300
TAFMSP
TAF
KMSP 212337Z 2200/2306 30015G24KT P6SM SKC
     FM220300 32010KT P6SM SKC
     FM220600 33006KT P6SM SKC
     FM221800 02006KT P6SM SCT250
     FM230000 07005KT P6SM SCT250=



000
FTUS43 KMPX 212300
TAFRWF
TAF
KRWF 212337Z 2200/2224 33014G23KT P6SM SKC
     FM220300 34008KT P6SM SKC
     FM220600 32004KT P6SM SKC
     FM221800 04005KT P6SM SCT250=



000
FTUS43 KMPX 212000 AAA
TAFMSP
TAF AMD
KMSP 212052Z 2121/2224 30019G26KT P6SM SKC
     FM220200 32012KT P6SM SKC
     FM220600 33007KT P6SM SKC
     FM221500 34008KT P6SM FEW250=



    US Dept of Commerce
    National Oceanic and Atmospheric Administration
    National Weather Service
    1325 East West Highway
    Silver Spring, MD 20910
    Page Author: NWS Internet Services Team
Disclaimer
Information Quality
Credits
Glossary
Privacy Policy
Freedom of Information Act (FOIA)
About Us
Career Opportunities